KCBE/CBE METAR and TAF weather

Enter ICAO airport designator
Station Type Date Time Source
KCBE METAR 2018/07/21 12:56 UTC NOAA

KCBE 211256Z AUTO 00000KT 10SM BKN033 OVC044 22/18 A3001 RMK AO1


Station Type Date Time Source
KCBE Decoded METAR 2018/07/21 12:56 UTC NOAA

Cumberland, Greater Cumberland Regional Airport, MD, United States (KCBE) 39-36-55N 078-45-39W
Jul 21, 2018 - 08:56 AM EDT / 2018.07.21 1256 UTC
Wind: Calm:0
Visibility: 10 mile(s):0
Sky conditions: overcast
Temperature: 71 F (22 C)
Dew Point: 64 F (18 C)
Relative Humidity: 78%
Pressure (altimeter): 30.01 in. Hg (1016 hPa)
ob: KCBE 211256Z AUTO 00000KT 10SM BKN033 OVC044 22/18 A3001 RMK AO1
cycle: 13

Station Type Date Time Source
KCBE TAF UTC NOAA

Error!


Example: see airport list